createdAt,value
2023-03-05T00:01:23.816Z,14.50
2023-03-05T00:03:53.253Z,10.60
2023-03-05T00:06:22.696Z,16.40
2023-03-05T00:08:50.556Z,11.70
2023-03-05T00:11:18.127Z,11.50
2023-03-05T00:13:46.283Z,12.70
2023-03-05T00:16:15.494Z,14.00
2023-03-05T00:18:43.671Z,10.50
2023-03-05T00:21:21.554Z,14.80
2023-03-05T00:23:49.567Z,14.20
2023-03-05T00:26:22.642Z,11.90
2023-03-05T00:28:50.310Z,14.10
2023-03-05T00:31:23.170Z,15.50
2023-03-05T00:33:52.919Z,14.00
2023-03-05T00:36:20.778Z,11.80
2023-03-05T00:38:48.353Z,8.70
2023-03-05T00:41:15.927Z,8.80
2023-03-05T00:43:43.768Z,9.60
2023-03-05T00:46:11.410Z,7.80
2023-03-05T00:48:39.026Z,7.80
2023-03-05T00:51:06.702Z,6.80
2023-03-05T00:53:34.281Z,5.60
2023-03-05T00:56:01.848Z,8.30
2023-03-05T00:58:29.390Z,7.80
2023-03-05T01:01:00.913Z,5.70
2023-03-05T01:03:30.063Z,5.40
2023-03-05T01:05:57.661Z,6.90
2023-03-05T01:08:26.074Z,9.50
2023-03-05T01:10:53.669Z,5.60
2023-03-05T01:13:21.304Z,7.20
2023-03-05T01:15:49.407Z,6.90
2023-03-05T01:18:18.033Z,5.90
2023-03-05T01:20:45.909Z,9.20
2023-03-05T01:23:13.729Z,6.50
2023-03-05T01:25:41.844Z,8.30
2023-03-05T01:28:09.840Z,7.90
2023-03-05T01:30:37.606Z,5.00
2023-03-05T01:33:05.159Z,4.80
2023-03-05T01:35:32.970Z,5.60
2023-03-05T01:38:00.645Z,5.80
2023-03-05T01:40:31.162Z,6.60
2023-03-05T01:43:13.869Z,5.60
2023-03-05T01:46:23.602Z,5.20
2023-03-05T01:48:56.366Z,6.10
2023-03-05T01:51:26.859Z,6.00
2023-03-05T01:53:56.021Z,5.40
2023-03-05T01:56:24.558Z,4.40
2023-03-05T01:58:53.345Z,5.70
2023-03-05T02:01:21.083Z,5.50
2023-03-05T02:03:48.956Z,6.90
2023-03-05T02:06:17.107Z,5.30
2023-03-05T02:08:44.642Z,7.30
2023-03-05T02:11:12.205Z,7.20
2023-03-05T02:13:39.808Z,6.30
2023-03-05T02:16:07.857Z,5.30
2023-03-05T02:18:35.464Z,9.20
2023-03-05T02:21:04.373Z,4.80
2023-03-05T02:23:34.344Z,6.50
2023-03-05T02:26:06.880Z,5.40
2023-03-05T02:28:55.807Z,7.70
2023-03-05T02:31:25.192Z,6.60
2023-03-05T02:33:53.537Z,6.20
2023-03-05T02:36:21.181Z,4.60
2023-03-05T02:38:48.853Z,6.60
2023-03-05T02:41:16.633Z,6.50
2023-03-05T02:43:44.243Z,5.50
2023-03-05T02:46:11.999Z,6.30
2023-03-05T02:48:39.647Z,5.80
2023-03-05T02:51:08.148Z,6.60
2023-03-05T02:53:35.780Z,4.20
2023-03-05T02:56:03.575Z,6.00
2023-03-05T02:58:31.276Z,6.50
2023-03-05T03:00:58.905Z,6.10
2023-03-05T03:03:26.673Z,5.60
2023-03-05T03:05:54.224Z,7.50
2023-03-05T03:08:21.748Z,5.60
2023-03-05T03:10:49.352Z,11.50
2023-03-05T03:13:17.088Z,11.60
2023-03-05T03:15:44.683Z,11.20
2023-03-05T03:18:12.205Z,9.40
2023-03-05T03:20:39.788Z,14.60
2023-03-05T03:23:07.453Z,16.20
2023-03-05T03:25:35.009Z,17.70
2023-03-05T03:28:02.563Z,18.40
2023-03-05T03:30:30.215Z,15.50
2023-03-05T03:32:57.808Z,14.80
2023-03-05T03:35:25.414Z,17.50
2023-03-05T03:37:53.043Z,14.30
2023-03-05T03:40:20.685Z,20.40
2023-03-05T03:42:48.255Z,26.30
2023-03-05T03:45:15.878Z,28.80
2023-03-05T03:47:43.429Z,21.60
2023-03-05T03:50:11.904Z,29.70
2023-03-05T03:52:39.426Z,23.60
2023-03-05T03:55:07.359Z,25.50
2023-03-05T03:57:34.928Z,17.80
2023-03-05T04:00:04.001Z,17.00
2023-03-05T04:02:31.722Z,16.50
2023-03-05T04:04:59.368Z,19.40
2023-03-05T04:07:26.991Z,16.00
2023-03-05T04:09:54.719Z,15.40
2023-03-05T04:12:22.462Z,14.90
2023-03-05T04:14:50.187Z,15.00
2023-03-05T04:17:17.724Z,12.60
2023-03-05T04:19:45.567Z,14.50
2023-03-05T04:22:15.779Z,15.60
2023-03-05T04:24:43.987Z,14.40
2023-03-05T04:27:11.785Z,12.80
2023-03-05T04:29:39.314Z,11.50
2023-03-05T04:32:07.630Z,12.80
2023-03-05T04:34:37.640Z,10.90
2023-03-05T04:37:05.267Z,13.80
2023-03-05T04:39:32.976Z,16.40
2023-03-05T04:42:00.549Z,12.20
2023-03-05T04:44:28.134Z,15.80
2023-03-05T04:46:55.694Z,17.40
2023-03-05T04:49:23.273Z,16.50
2023-03-05T04:51:50.780Z,18.00
2023-03-05T04:54:18.369Z,16.20
2023-03-05T04:56:45.926Z,17.10
2023-03-05T04:59:13.572Z,18.30
2023-03-05T05:01:41.303Z,10.50
2023-03-05T05:04:08.980Z,9.20
2023-03-05T05:06:36.552Z,10.90
2023-03-05T05:09:04.202Z,12.20
2023-03-05T05:11:31.780Z,12.30
2023-03-05T05:13:59.293Z,12.10
2023-03-05T05:16:27.007Z,14.00
2023-03-05T05:18:55.177Z,14.10
2023-03-05T05:21:22.786Z,14.20
2023-03-05T05:23:50.340Z,15.00
2023-03-05T05:26:17.919Z,14.90
2023-03-05T05:28:45.628Z,15.70
2023-03-05T05:31:16.063Z,15.40
2023-03-05T05:36:14.541Z,11.00
2023-03-05T05:38:42.587Z,16.90
2023-03-05T05:41:13.382Z,18.60
2023-03-05T05:43:41.137Z,19.10
2023-03-05T05:46:12.553Z,18.30
2023-03-05T05:48:40.357Z,12.40
2023-03-05T05:51:13.613Z,19.70
2023-03-05T05:53:42.411Z,15.90
2023-03-05T05:56:12.154Z,20.40
2023-03-05T05:58:40.974Z,18.00
2023-03-05T06:01:19.543Z,19.40
2023-03-05T06:03:47.727Z,18.60
2023-03-05T06:06:18.401Z,23.00
2023-03-05T06:08:46.372Z,14.30
2023-03-05T06:11:14.694Z,16.50
2023-03-05T06:13:42.623Z,12.60
2023-03-05T06:16:16.869Z,14.20
2023-03-05T06:18:44.554Z,19.70
2023-03-05T06:21:14.756Z,12.60
2023-03-05T06:23:44.230Z,13.60
2023-03-05T06:26:14.816Z,13.30
2023-03-05T06:28:42.890Z,10.40
2023-03-05T06:31:19.165Z,10.00
2023-03-05T06:33:46.701Z,9.80
2023-03-05T06:36:17.202Z,13.70
2023-03-05T06:38:44.817Z,10.00
2023-03-05T06:41:15.360Z,10.20
2023-03-05T06:43:45.574Z,7.20
2023-03-05T06:46:19.842Z,8.70
2023-03-05T06:48:48.421Z,6.10
2023-03-05T06:51:26.041Z,9.70
2023-03-05T06:53:54.935Z,8.10
2023-03-05T06:56:22.678Z,11.50
2023-03-05T06:58:52.969Z,9.90
2023-03-05T07:01:21.344Z,8.30
2023-03-05T07:03:54.653Z,9.50
2023-03-05T07:06:22.603Z,15.00
2023-03-05T07:08:50.150Z,14.60
2023-03-05T07:11:20.755Z,13.00
2023-03-05T07:13:49.227Z,10.30
2023-03-05T07:16:23.428Z,12.70
2023-03-05T07:18:51.771Z,10.90
2023-03-05T07:21:25.022Z,14.60
2023-03-05T07:23:57.623Z,9.90
2023-03-05T07:26:26.343Z,9.90
2023-03-05T07:28:54.569Z,11.80
2023-03-05T07:31:24.216Z,14.90
2023-03-05T07:33:51.805Z,9.60
2023-03-05T07:36:19.584Z,13.00
2023-03-05T07:38:47.398Z,13.00
2023-03-05T07:41:17.559Z,14.00
2023-03-05T07:43:50.039Z,15.00
2023-03-05T07:46:20.694Z,13.80
2023-03-05T07:48:48.457Z,17.20
2023-03-05T07:51:19.048Z,14.80
2023-03-05T07:53:48.807Z,14.00
2023-03-05T07:56:25.177Z,15.00
2023-03-05T07:58:52.983Z,14.10
2023-03-05T08:01:20.626Z,13.20
2023-03-05T08:03:48.361Z,13.30
2023-03-05T08:06:16.502Z,16.60
2023-03-05T08:08:44.319Z,13.50
2023-03-05T08:11:14.284Z,17.30
2023-03-05T08:13:43.573Z,12.50
2023-03-05T08:16:17.337Z,21.00
2023-03-05T08:18:45.543Z,20.10
2023-03-05T08:21:21.793Z,15.30
2023-03-05T08:23:49.417Z,13.70
2023-03-05T08:26:21.160Z,18.00
2023-03-05T08:28:49.731Z,16.00
2023-03-05T08:31:19.155Z,18.70
2023-03-05T08:33:47.893Z,12.90
2023-03-05T08:36:15.539Z,16.50
2023-03-05T08:38:43.106Z,12.70
2023-03-05T08:41:11.229Z,16.50
2023-03-05T08:43:39.296Z,19.10
2023-03-05T08:46:07.064Z,13.00
2023-03-05T08:48:34.714Z,17.20
2023-03-05T08:51:07.634Z,13.00
2023-03-05T08:53:35.309Z,15.90
2023-03-05T08:56:02.976Z,15.40
2023-03-05T08:58:30.894Z,9.60
2023-03-05T09:00:58.513Z,19.20
2023-03-05T09:03:26.218Z,14.90
2023-03-05T09:05:53.811Z,20.30
2023-03-05T09:08:21.448Z,21.10
2023-03-05T09:10:48.988Z,15.30
2023-03-05T09:13:16.701Z,20.90
2023-03-05T09:15:44.287Z,18.10
2023-03-05T09:18:11.828Z,24.00
2023-03-05T09:20:39.431Z,21.00
2023-03-05T09:23:07.045Z,14.50
2023-03-05T09:25:34.588Z,14.40
2023-03-05T09:28:02.147Z,28.20
2023-03-05T09:30:29.797Z,18.40
2023-03-05T09:32:57.375Z,19.50
2023-03-05T09:35:25.025Z,22.40
2023-03-05T09:37:52.708Z,19.50
2023-03-05T09:40:21.956Z,17.60
2023-03-05T09:42:52.184Z,21.60
2023-03-05T09:48:08.370Z,15.60
2023-03-05T09:50:47.716Z,17.30
2023-03-05T09:53:43.078Z,21.10
2023-03-05T09:56:14.331Z,17.30
2023-03-05T09:58:48.388Z,17.70
2023-03-05T10:01:15.950Z,17.40
2023-03-05T10:03:49.778Z,17.40
2023-03-05T10:06:31.007Z,15.00
2023-03-05T10:09:07.348Z,21.30
2023-03-05T10:11:56.912Z,17.30
2023-03-05T10:14:35.630Z,24.40
2023-03-05T10:17:10.529Z,16.20
2023-03-05T10:19:59.673Z,20.60
2023-03-05T10:22:41.037Z,14.50
2023-03-05T10:25:14.699Z,17.80
2023-03-05T10:28:04.706Z,23.20
2023-03-05T10:30:50.279Z,26.40
2023-03-05T10:33:25.467Z,24.70
2023-03-05T10:36:21.005Z,22.90
2023-03-05T10:39:12.601Z,23.30
2023-03-05T10:41:58.873Z,25.20
2023-03-05T10:44:46.661Z,32.40
2023-03-05T10:47:55.365Z,30.60
2023-03-05T10:50:31.621Z,26.10
2023-03-05T10:53:37.664Z,29.90
2023-03-05T10:56:06.699Z,27.40
2023-03-05T10:58:34.339Z,19.90
2023-03-05T11:01:06.085Z,21.80
2023-03-05T11:03:50.634Z,22.10
2023-03-05T11:06:45.091Z,20.30
2023-03-05T11:09:27.570Z,19.70
2023-03-05T11:12:04.238Z,18.90
2023-03-05T11:14:32.466Z,19.10
2023-03-05T11:17:23.568Z,22.00
2023-03-05T11:19:51.156Z,20.20
2023-03-05T11:22:22.265Z,19.90
2023-03-05T11:25:17.437Z,21.80
2023-03-05T11:30:25.903Z,17.10
2023-03-05T11:33:16.689Z,19.10
2023-03-05T11:35:44.561Z,13.50
2023-03-05T11:38:16.591Z,20.70
2023-03-05T11:40:44.496Z,19.00
2023-03-05T11:43:18.095Z,18.50
2023-03-05T11:45:47.287Z,19.50
2023-03-05T11:48:26.881Z,18.20
2023-03-05T11:50:58.162Z,12.80
2023-03-05T11:53:28.216Z,13.30
2023-03-05T11:56:26.735Z,16.80
2023-03-05T11:59:14.858Z,14.90
2023-03-05T12:01:50.052Z,13.70
2023-03-05T12:04:19.362Z,16.80
2023-03-05T12:06:54.518Z,13.50
2023-03-05T12:09:42.427Z,14.60
2023-03-05T12:12:15.807Z,16.10
2023-03-05T12:14:51.521Z,10.70
2023-03-05T12:17:28.602Z,11.50
2023-03-05T12:20:22.101Z,12.20
2023-03-05T12:22:50.634Z,8.90
2023-03-05T12:25:44.415Z,8.00
2023-03-05T12:28:31.706Z,8.60
2023-03-05T12:31:01.823Z,11.10
2023-03-05T12:33:33.689Z,8.30
2023-03-05T12:36:19.464Z,10.40
2023-03-05T12:38:57.447Z,9.80
2023-03-05T12:41:27.463Z,7.10
2023-03-05T12:44:04.878Z,9.60
2023-03-05T12:46:34.907Z,8.30
2023-03-05T12:49:17.835Z,9.10
2023-03-05T12:51:47.534Z,8.60
2023-03-05T12:54:34.670Z,9.80
2023-03-05T12:57:12.878Z,7.60
2023-03-05T12:59:57.429Z,7.20
2023-03-05T13:02:38.847Z,7.80
2023-03-05T13:05:24.741Z,7.10
2023-03-05T13:07:52.488Z,8.00
2023-03-05T13:10:27.704Z,6.50
2023-03-05T13:12:57.512Z,5.70
2023-03-05T13:15:26.446Z,8.30
2023-03-05T13:18:02.121Z,6.50
2023-03-05T13:20:34.410Z,5.80
2023-03-05T13:23:07.804Z,5.60
2023-03-05T13:25:35.375Z,7.40
2023-03-05T13:28:17.381Z,6.80
2023-03-05T13:30:51.492Z,6.00
2023-03-05T13:33:25.990Z,6.30
2023-03-05T13:35:54.223Z,5.80
2023-03-05T13:38:46.801Z,7.90
2023-03-05T13:41:14.805Z,8.00
2023-03-05T13:43:54.335Z,6.40
2023-03-05T13:46:29.316Z,7.70
2023-03-05T13:49:15.923Z,8.60
2023-03-05T13:51:45.705Z,6.90
2023-03-05T13:54:17.872Z,8.90
2023-03-05T13:56:54.384Z,7.80
2023-03-05T14:01:52.466Z,7.00
2023-03-05T14:04:23.593Z,9.50
2023-03-05T14:07:04.141Z,9.00
2023-03-05T14:09:37.469Z,7.50
2023-03-05T14:12:30.053Z,8.00
2023-03-05T14:14:59.767Z,8.60
2023-03-05T14:17:27.375Z,7.50
2023-03-05T14:20:13.066Z,9.10
2023-03-05T14:22:43.560Z,10.90
2023-03-05T14:25:32.565Z,7.60
2023-03-05T14:28:29.104Z,13.30
2023-03-05T14:30:57.376Z,9.90
2023-03-05T14:33:29.733Z,12.10
2023-03-05T14:35:59.610Z,12.70
2023-03-05T14:38:31.908Z,10.70
2023-03-05T14:41:29.603Z,12.90
2023-03-05T14:43:57.192Z,8.60
2023-03-05T14:46:24.866Z,7.50
2023-03-05T14:48:53.437Z,9.10
2023-03-05T14:51:21.441Z,6.90
2023-03-05T14:53:49.369Z,9.20
2023-03-05T14:56:23.717Z,7.70
2023-03-05T14:58:51.436Z,7.80
2023-03-05T15:01:19.159Z,7.50
2023-03-05T15:03:46.790Z,7.10
2023-03-05T15:06:35.379Z,9.10
2023-03-05T15:09:05.347Z,6.90
2023-03-05T15:11:33.920Z,7.90
2023-03-05T15:14:01.703Z,6.90
2023-03-05T15:16:32.099Z,8.00
2023-03-05T15:18:59.796Z,9.40
2023-03-05T15:21:27.359Z,5.90
2023-03-05T15:23:54.923Z,8.00
2023-03-05T15:26:22.438Z,8.10
2023-03-05T15:28:50.125Z,5.60
2023-03-05T15:31:17.847Z,10.30
2023-03-05T15:33:45.439Z,7.10
2023-03-05T15:36:13.075Z,9.00
2023-03-05T15:38:41.019Z,8.40
2023-03-05T15:41:08.690Z,8.10
2023-03-05T15:43:36.999Z,5.80
2023-03-05T15:46:06.371Z,8.00
2023-03-05T15:48:34.079Z,6.10
2023-03-05T15:51:01.713Z,8.20
2023-03-05T15:53:29.519Z,8.30
2023-03-05T15:55:57.160Z,7.30
2023-03-05T15:58:24.781Z,5.60
2023-03-05T16:00:55.078Z,8.70
2023-03-05T16:03:23.188Z,5.90
2023-03-05T16:05:50.859Z,6.60
2023-03-05T16:08:18.463Z,5.60
2023-03-05T16:10:46.870Z,8.30
2023-03-05T16:13:16.411Z,6.70
2023-03-05T16:15:44.735Z,9.50
2023-03-05T16:18:15.803Z,9.10
2023-03-05T16:20:43.538Z,7.90
2023-03-05T16:23:11.086Z,9.20
2023-03-05T16:25:40.207Z,8.40
2023-03-05T16:28:08.201Z,9.10
2023-03-05T16:30:36.039Z,11.00
2023-03-05T16:33:04.203Z,10.40
2023-03-05T16:35:32.142Z,12.00
2023-03-05T16:37:59.857Z,12.70
2023-03-05T16:40:44.313Z,12.60
2023-03-05T16:43:15.124Z,12.10
2023-03-05T16:45:42.917Z,15.30
2023-03-05T16:48:10.561Z,11.50
2023-03-05T16:50:39.306Z,12.10
2023-03-05T16:53:06.999Z,14.40
2023-03-05T16:58:11.097Z,17.30
2023-03-05T17:00:39.253Z,26.50
2023-03-05T17:03:07.004Z,19.50
2023-03-05T17:05:38.058Z,23.50
2023-03-05T17:08:05.847Z,18.90
2023-03-05T17:10:33.892Z,20.00
2023-03-05T17:13:01.562Z,19.40
2023-03-05T17:15:31.557Z,19.50
2023-03-05T17:17:59.208Z,19.20
2023-03-05T17:20:27.468Z,22.00
2023-03-05T17:22:55.077Z,13.80
2023-03-05T17:25:22.727Z,16.80
2023-03-05T17:27:50.360Z,11.80
2023-03-05T17:30:18.041Z,9.60
2023-03-05T17:32:45.681Z,9.80
2023-03-05T17:35:18.817Z,8.20
2023-03-05T17:37:46.480Z,7.70
2023-03-05T17:40:14.955Z,9.30
2023-03-05T17:42:42.727Z,11.90
2023-03-05T17:45:11.274Z,8.30
2023-03-05T17:47:39.230Z,5.60
2023-03-05T17:50:08.589Z,8.20
2023-03-05T17:52:37.300Z,12.30
2023-03-05T17:55:06.736Z,15.40
2023-03-05T17:57:36.476Z,15.90
2023-03-05T18:00:05.990Z,17.60
2023-03-05T18:02:33.645Z,13.70
2023-03-05T18:05:03.244Z,15.10
2023-03-05T18:07:31.920Z,12.50
2023-03-05T18:09:59.872Z,15.30
2023-03-05T18:12:27.457Z,16.10
2023-03-05T18:14:55.152Z,22.50
2023-03-05T18:17:23.075Z,21.60
2023-03-05T18:19:51.642Z,18.90
2023-03-05T18:22:19.479Z,22.60
2023-03-05T18:24:47.071Z,24.60
2023-03-05T18:27:14.949Z,20.50
2023-03-05T18:29:42.960Z,26.90
2023-03-05T18:32:10.774Z,23.10
2023-03-05T18:34:38.479Z,18.90
2023-03-05T18:37:06.038Z,19.10
2023-03-05T18:39:33.613Z,15.20
2023-03-05T18:42:01.212Z,17.00
2023-03-05T18:44:28.795Z,24.50
2023-03-05T18:46:56.430Z,21.40
2023-03-05T18:49:24.027Z,22.40
2023-03-05T18:51:51.721Z,29.50
2023-03-05T18:54:19.272Z,16.50
2023-03-05T18:56:46.876Z,25.70
2023-03-05T18:59:14.528Z,32.30
2023-03-05T19:01:42.621Z,28.20
2023-03-05T19:04:10.528Z,28.00
2023-03-05T19:06:38.134Z,28.00
2023-03-05T19:09:05.962Z,26.60
2023-03-05T19:11:33.511Z,22.90
2023-03-05T19:14:01.528Z,22.40
2023-03-05T19:16:30.362Z,24.50
2023-03-05T19:19:04.795Z,23.30
2023-03-05T19:21:32.506Z,28.30
2023-03-05T19:24:00.154Z,22.30
2023-03-05T19:26:27.842Z,22.70
2023-03-05T19:28:55.346Z,24.50
2023-03-05T19:31:23.653Z,23.10
2023-03-05T19:33:51.189Z,21.30
2023-03-05T19:36:18.745Z,20.20
2023-03-05T19:38:48.606Z,19.80
2023-03-05T19:41:17.164Z,20.00
2023-03-05T19:43:44.815Z,22.80
2023-03-05T19:46:12.888Z,24.60
2023-03-05T19:48:40.447Z,20.50
2023-03-05T19:51:13.343Z,22.60
2023-03-05T19:53:42.116Z,28.70
2023-03-05T19:56:10.404Z,22.60
2023-03-05T19:58:38.283Z,23.70
2023-03-05T20:01:16.106Z,28.20
2023-03-05T20:03:45.425Z,27.50
2023-03-05T20:06:14.080Z,23.70
2023-03-05T20:08:41.695Z,26.70
2023-03-05T20:11:14.240Z,25.70
2023-03-05T20:13:42.297Z,20.30
2023-03-05T20:16:20.685Z,25.20
2023-03-05T20:18:49.047Z,27.50
2023-03-05T20:21:16.689Z,22.40
2023-03-05T20:23:44.650Z,19.10
2023-03-05T20:26:14.643Z,17.20
2023-03-05T20:28:43.022Z,20.10
2023-03-05T20:31:11.125Z,16.60
2023-03-05T20:33:39.159Z,18.20
2023-03-05T20:36:07.100Z,20.00
2023-03-05T20:38:34.598Z,25.30
2023-03-05T20:41:05.669Z,20.00
2023-03-05T20:43:36.495Z,20.30
2023-03-05T20:46:04.837Z,22.10
2023-03-05T20:48:33.907Z,23.30
2023-03-05T20:51:25.198Z,22.10
2023-03-05T20:53:55.889Z,26.70
2023-03-05T20:56:25.977Z,21.70
2023-03-05T20:58:56.610Z,25.20
2023-03-05T21:01:25.247Z,21.40
2023-03-05T21:03:53.143Z,25.60
2023-03-05T21:06:20.724Z,16.80
2023-03-05T21:08:48.363Z,18.20
2023-03-05T21:11:16.133Z,19.70
2023-03-05T21:13:44.449Z,20.70
2023-03-05T21:16:16.689Z,24.00
2023-03-05T21:18:44.581Z,22.00
2023-03-05T21:21:12.500Z,21.20
2023-03-05T21:23:40.085Z,26.80
2023-03-05T21:26:07.694Z,23.20
2023-03-05T21:28:35.420Z,30.70
2023-03-05T21:31:14.967Z,21.40
2023-03-05T21:33:42.695Z,19.80
2023-03-05T21:36:10.497Z,21.70
2023-03-05T21:38:38.067Z,22.70
2023-03-05T21:41:05.954Z,19.80
2023-03-05T21:43:34.038Z,24.00
2023-03-05T21:46:02.764Z,23.40
2023-03-05T21:48:30.903Z,22.80
2023-03-05T21:50:58.758Z,20.40
2023-03-05T21:53:26.482Z,25.80
2023-03-05T21:55:55.412Z,24.90
2023-03-05T21:58:23.024Z,24.50
2023-03-05T22:00:50.634Z,21.10
2023-03-05T22:03:18.432Z,21.10
2023-03-05T22:05:46.111Z,24.50
2023-03-05T22:08:13.879Z,22.20
2023-03-05T22:10:41.677Z,28.10
2023-03-05T22:13:09.993Z,29.50
2023-03-05T22:15:55.011Z,28.20
2023-03-05T22:18:28.523Z,22.20
2023-03-05T22:20:57.453Z,35.00
2023-03-05T22:23:27.390Z,32.10
2023-03-05T22:25:59.410Z,34.70
2023-03-05T22:28:28.070Z,26.60
2023-03-05T22:30:56.352Z,34.40
2023-03-05T22:33:24.352Z,42.90
2023-03-05T22:35:51.967Z,50.00
2023-03-05T22:38:20.033Z,47.30
2023-03-05T22:40:49.248Z,50.30
2023-03-05T22:43:18.801Z,44.70
2023-03-05T22:45:46.542Z,36.50
2023-03-05T22:48:14.114Z,36.40
2023-03-05T22:50:43.138Z,30.50
2023-03-05T22:53:11.206Z,32.00
2023-03-05T22:55:42.633Z,26.30
2023-03-05T22:58:10.285Z,26.20
2023-03-05T23:00:37.852Z,36.50
2023-03-05T23:03:05.513Z,30.70
2023-03-05T23:05:34.207Z,23.80
2023-03-05T23:08:02.037Z,40.40
2023-03-05T23:10:29.721Z,29.00
2023-03-05T23:12:58.777Z,37.70
2023-03-05T23:15:29.180Z,28.70
2023-03-05T23:20:27.443Z,29.00
2023-03-05T23:25:25.417Z,34.60
2023-03-05T23:27:54.087Z,29.10
2023-03-05T23:30:23.306Z,31.70
2023-03-05T23:33:02.136Z,22.30
2023-03-05T23:35:33.324Z,25.30
2023-03-05T23:38:02.336Z,31.40
2023-03-05T23:40:39.921Z,26.20
2023-03-05T23:43:07.945Z,26.10
2023-03-05T23:45:35.476Z,29.40
2023-03-05T23:48:03.303Z,23.90
2023-03-05T23:50:34.139Z,26.10
2023-03-05T23:53:02.793Z,24.90
2023-03-05T23:55:37.197Z,29.10
2023-03-05T23:58:04.747Z,28.90
